Time;durP1;ratioP1;P1;durP2;ratioP2;P2;SDS_P1;SDS_P2;PMS_P1;PMS_P2;Temp;Humidity;BMP_temperature;BMP_pressure;BME280_temperature;BME280_humidity;BME280_pressure;Samples;Min_cycle;Max_cycle;Signal;HPM_P1;HPM_P2
2021/01/06 00:00:18;;;;;;;30.53;19.03;;;4.30;90.70;;;;;;5053819;28;20040;-78
2021/01/06 00:02:44;;;;;;;52.33;31.87;;;4.30;90.90;;;;;;5090479;28;20036;-78
2021/01/06 00:05:15;;;;;;;38.07;24.47;;;4.20;90.70;;;;;;5090047;28;20018;-78
2021/01/06 00:07:45;;;;;;;36.07;22.43;;;4.20;90.70;;;;;;5091035;28;20472;-78
2021/01/06 00:10:19;;;;;;;46.33;28.97;;;4.20;90.70;;;;;;5091615;28;20102;-79
2021/01/06 00:12:45;;;;;;;34.73;20.60;;;4.30;90.80;;;;;;5091194;28;20380;-79
2021/01/06 00:15:22;;;;;;;29.00;18.17;;;4.30;90.80;;;;;;5073432;28;20031;-78
2021/01/06 00:17:48;;;;;;;31.77;19.63;;;4.40;90.90;;;;;;5092742;28;20070;-78
2021/01/06 00:20:15;;;;;;;27.77;18.20;;;4.40;90.70;;;;;;5090641;28;20483;-78
2021/01/06 00:22:41;;;;;;;42.80;26.67;;;4.40;90.70;;;;;;5074373;28;20468;-79
2021/01/06 00:25:09;;;;;;;41.43;24.77;;;4.50;90.80;;;;;;5090419;28;20039;-79
2021/01/06 00:27:35;;;;;;;34.07;21.63;;;4.60;90.90;;;;;;5091336;28;20054;-79
2021/01/06 00:30:00;;;;;;;34.90;22.30;;;4.60;90.80;;;;;;5073446;28;20028;-78
2021/01/06 00:32:26;;;;;;;27.67;18.63;;;4.70;90.80;;;;;;5074385;28;20020;-78
2021/01/06 00:34:51;;;;;;;35.00;23.00;;;4.70;90.60;;;;;;5090548;28;20035;-79
2021/01/06 00:37:17;;;;;;;41.73;26.53;;;4.60;90.70;;;;;;5073805;28;20472;-78
2021/01/06 00:39:43;;;;;;;42.77;25.90;;;4.80;90.80;;;;;;5073922;28;20127;-78
2021/01/06 00:42:09;;;;;;;41.17;24.97;;;4.90;90.90;;;;;;5089630;28;20036;-79
2021/01/06 00:44:34;;;;;;;39.10;23.83;;;4.90;90.90;;;;;;5090593;28;20085;-78
2021/01/06 00:47:00;;;;;;;30.57;18.67;;;4.90;90.60;;;;;;5090071;28;20085;-79
2021/01/06 00:49:25;;;;;;;29.67;19.73;;;4.80;90.50;;;;;;5091118;28;20357;-78
2021/01/06 00:51:51;;;;;;;38.10;23.27;;;4.70;90.50;;;;;;5074045;28;20039;-79
2021/01/06 00:54:17;;;;;;;26.57;17.50;;;4.70;90.60;;;;;;5073576;28;20046;-78
2021/01/06 00:56:43;;;;;;;27.27;16.83;;;4.70;90.50;;;;;;5090874;28;20379;-78
2021/01/06 00:59:08;;;;;;;31.53;19.47;;;4.60;90.40;;;;;;5072809;28;20032;-78
2021/01/06 01:01:34;;;;;;;28.77;19.17;;;4.60;90.60;;;;;;5073550;28;20089;-78
2021/01/06 01:04:00;;;;;;;33.93;21.63;;;4.60;90.50;;;;;;5089304;28;20036;-77
2021/01/06 01:06:31;;;;;;;36.93;22.43;;;4.60;90.50;;;;;;5070342;28;20036;-78
2021/01/06 01:08:58;;;;;;;29.77;19.83;;;4.70;90.70;;;;;;5086527;28;20124;-78
2021/01/06 01:11:25;;;;;;;33.47;22.13;;;4.70;90.60;;;;;;5087286;28;20028;-77
2021/01/06 01:13:52;;;;;;;28.87;19.17;;;4.80;90.80;;;;;;5087018;28;20183;-77
2021/01/06 01:16:19;;;;;;;30.17;19.33;;;4.80;90.50;;;;;;5074419;28;20107;-77
2021/01/06 01:18:45;;;;;;;29.80;20.03;;;4.70;90.50;;;;;;5094147;28;20024;-77
2021/01/06 01:21:10;;;;;;;29.53;19.43;;;4.80;90.50;;;;;;5074327;28;20036;-77
2021/01/06 01:23:36;;;;;;;27.70;18.37;;;4.70;90.30;;;;;;5074920;28;20047;-77
2021/01/06 01:26:02;;;;;;;28.37;18.50;;;4.50;90.30;;;;;;5090901;28;20032;-77
2021/01/06 01:28:28;;;;;;;33.57;21.57;;;4.40;90.40;;;;;;5091958;28;20047;-77
2021/01/06 01:30:56;;;;;;;33.97;20.90;;;4.50;90.70;;;;;;5073364;28;20123;-77
2021/01/06 01:33:29;;;;;;;29.80;19.03;;;4.60;90.70;;;;;;5089898;28;20059;-77
2021/01/06 01:35:56;;;;;;;35.63;20.83;;;4.50;90.50;;;;;;5089551;28;20357;-78
2021/01/06 01:38:24;;;;;;;34.63;21.87;;;4.50;90.70;;;;;;5089497;28;20111;-76
2021/01/06 01:41:09;;;;;;;34.20;21.13;;;4.50;90.70;;;;;;5091180;28;20028;-77
2021/01/06 01:43:35;;;;;;;32.57;20.40;;;4.60;90.60;;;;;;5069860;28;20053;-77
2021/01/06 01:46:06;;;;;;;32.80;21.00;;;4.60;90.70;;;;;;5068835;28;20047;-77
2021/01/06 01:48:47;;;;;;;33.27;20.40;;;4.80;90.70;;;;;;5071108;28;20056;-77
2021/01/06 01:51:35;;;;;;;28.67;19.17;;;4.80;90.70;;;;;;5076228;28;20020;-78
2021/01/06 01:54:07;;;;;;;29.80;17.93;;;4.80;90.40;;;;;;5090730;28;20027;-77
2021/01/06 01:56:38;;;;;;;30.30;19.43;;;4.70;90.30;;;;;;5091639;28;20064;-77
2021/01/06 01:59:11;;;;;;;28.53;18.30;;;4.60;90.40;;;;;;5088609;28;20024;-77
2021/01/06 02:01:37;;;;;;;29.33;19.15;;;4.80;90.50;;;;;;5090761;28;20048;-77
2021/01/06 02:04:10;;;;;;;27.13;18.00;;;4.70;90.50;;;;;;5089699;28;20028;-78
2021/01/06 02:06:47;;;;;;;29.20;19.08;;;4.70;90.40;;;;;;5090813;28;20174;-78
2021/01/06 02:09:21;;;;;;;29.13;19.13;;;4.80;90.40;;;;;;5090468;28;20036;-78
2021/01/06 02:11:57;;;;;;;28.83;18.67;;;4.60;90.30;;;;;;5090122;28;20096;-78
2021/01/06 02:14:36;;;;;;;27.03;18.67;;;4.50;90.40;;;;;;5091303;28;20016;-77
2021/01/06 02:17:09;;;;;;;32.17;20.07;;;4.40;90.40;;;;;;5094168;28;20020;-78
2021/01/06 02:19:41;;;;;;;29.93;19.57;;;4.40;90.50;;;;;;5095072;28;20024;-78
2021/01/06 02:22:11;;;;;;;29.87;19.97;;;4.40;90.60;;;;;;5092837;28;20032;-78
2021/01/06 02:24:37;;;;;;;32.43;20.47;;;4.40;90.60;;;;;;5094848;28;20056;-78
2021/01/06 02:27:04;;;;;;;31.33;19.10;;;4.50;90.60;;;;;;5075816;28;20337;-77
2021/01/06 02:29:32;;;;;;;32.03;20.43;;;4.50;90.60;;;;;;5094669;28;20055;-78
2021/01/06 02:31:58;;;;;;;33.30;20.90;;;4.50;90.70;;;;;;5092890;28;20024;-79
2021/01/06 02:34:25;;;;;;;28.83;19.63;;;4.60;90.70;;;;;;5058622;28;20475;-78
2021/01/06 02:36:52;;;;;;;32.57;21.17;;;4.50;90.60;;;;;;5092369;28;20472;-78
2021/01/06 02:39:17;;;;;;;30.83;20.37;;;4.50;90.70;;;;;;5071822;28;20041;-77
2021/01/06 02:41:47;;;;;;;32.33;19.43;;;4.50;90.70;;;;;;5092498;28;20414;-78
2021/01/06 02:44:13;;;;;;;33.13;20.63;;;4.50;90.80;;;;;;5093471;28;20456;-78
2021/01/06 02:46:39;;;;;;;35.30;21.70;;;4.60;90.70;;;;;;5092591;28;20034;-78
2021/01/06 02:49:06;;;;;;;33.77;20.67;;;4.50;90.70;;;;;;5075166;28;20024;-78
2021/01/06 02:52:09;;;;;;;32.50;20.27;;;4.50;90.70;;;;;;5092468;28;20448;-78
2021/01/06 02:54:39;;;;;;;33.83;21.50;;;4.50;90.80;;;;;;5070363;28;20041;-78
2021/01/06 02:57:06;;;;;;;34.23;20.60;;;4.50;90.70;;;;;;5071620;28;20052;-78
2021/01/06 02:59:37;;;;;;;34.67;21.10;;;4.50;90.80;;;;;;5072127;28;20468;-78
2021/01/06 03:02:03;;;;;;;32.77;21.27;;;4.50;90.70;;;;;;5090625;28;20077;-78
2021/01/06 03:04:34;;;;;;;35.10;21.50;;;4.50;90.70;;;;;;5094469;28;20024;-78
2021/01/06 03:07:03;;;;;;;33.00;21.23;;;4.30;90.60;;;;;;5094041;28;20025;-77
2021/01/06 03:09:36;;;;;;;37.13;22.20;;;4.30;90.70;;;;;;5093098;28;20063;-78
2021/01/06 03:12:04;;;;;;;;;;;4.30;90.80;;;;;;5094211;28;20024;-78
2021/01/06 03:14:33;;;;;;;33.27;18.93;;;4.30;90.80;;;;;;5092817;28;19904;-78
2021/01/06 03:17:01;;;;;;;33.23;20.40;;;4.20;90.70;;;;;;5092929;28;20028;-78
2021/01/06 03:19:29;;;;;;;31.23;19.27;;;4.20;90.80;;;;;;5092389;28;20047;-78
2021/01/06 03:21:57;;;;;;;39.83;21.70;;;4.20;90.90;;;;;;5092724;28;20032;-78
2021/01/06 03:24:30;;;;;;;38.37;22.13;;;4.20;90.90;;;;;;5093272;28;20107;-77
2021/01/06 03:26:59;;;;;;;35.33;21.97;;;4.30;91.00;;;;;;5092095;28;20352;-78
2021/01/06 03:29:27;;;;;;;33.47;19.87;;;4.40;90.80;;;;;;5091378;28;20656;-78
2021/01/06 03:31:54;;;;;;;31.30;18.80;;;4.30;90.60;;;;;;5094061;28;20489;-78
2021/01/06 03:34:25;;;;;;;37.97;21.50;;;4.30;90.70;;;;;;5093370;28;20054;-78
2021/01/06 03:37:01;;;;;;;37.33;21.43;;;4.30;90.80;;;;;;5092111;28;20032;-78
2021/01/06 03:39:34;;;;;;;35.73;20.40;;;4.30;90.70;;;;;;5092982;28;20028;-78
2021/01/06 03:42:00;;;;;;;32.73;20.20;;;4.30;90.80;;;;;;5093842;28;20032;-78
2021/01/06 03:44:27;;;;;;;33.90;20.97;;;4.30;90.80;;;;;;5074888;28;20141;-78
2021/01/06 03:47:04;;;;;;;36.63;21.07;;;4.30;90.70;;;;;;5092367;28;20032;-78
2021/01/06 03:49:51;;;;;;;35.73;20.67;;;4.20;90.60;;;;;;5093406;28;20027;-78
2021/01/06 03:52:47;;;;;;;34.83;21.60;;;4.20;90.80;;;;;;5091559;28;20051;-78
2021/01/06 03:55:40;;;;;;;35.43;20.47;;;4.10;90.70;;;;;;5091166;28;20028;-78
2021/01/06 03:58:06;;;;;;;35.17;18.77;;;4.00;90.70;;;;;;5092925;28;20036;-78
2021/01/06 04:00:53;;;;;;;35.90;21.07;;;4.10;90.80;;;;;;5091975;28;20131;-78
2021/01/06 04:03:41;;;;;;;36.57;21.67;;;4.10;90.90;;;;;;5091210;28;20033;-78
2021/01/06 04:06:09;;;;;;;28.90;18.70;;;4.10;90.80;;;;;;5092740;28;20028;-77
2021/01/06 04:08:50;;;;;;;32.03;19.50;;;4.20;90.80;;;;;;5093315;28;20020;-78
2021/01/06 04:11:23;;;;;;;34.13;19.57;;;4.20;90.70;;;;;;5091579;28;20039;-78
2021/01/06 04:13:48;;;;;;;31.10;18.83;;;4.10;90.60;;;;;;5105124;28;20017;-78
2021/01/06 04:16:14;;;;;;;32.97;19.50;;;4.00;90.60;;;;;;5112736;28;20035;-78
2021/01/06 04:18:42;;;;;;;30.90;19.00;;;4.10;90.60;;;;;;5112973;28;20082;-76
2021/01/06 04:21:08;;;;;;;32.23;19.47;;;4.00;90.60;;;;;;5112139;28;20095;-79
2021/01/06 04:23:34;;;;;;;30.77;18.40;;;4.10;90.80;;;;;;5101325;28;20031;-78
2021/01/06 04:25:59;;;;;;;31.07;17.73;;;4.10;90.50;;;;;;5091430;28;20089;-78
2021/01/06 04:28:28;;;;;;;33.40;18.93;;;4.10;90.60;;;;;;5091841;28;20024;-78
2021/01/06 04:31:03;;;;;;;32.23;18.93;;;4.20;90.70;;;;;;5091687;28;20031;-78
2021/01/06 04:33:30;;;;;;;33.47;20.23;;;4.10;90.60;;;;;;5090995;28;20484;-77
2021/01/06 04:35:59;;;;;;;33.03;20.60;;;4.10;90.60;;;;;;5091600;28;20031;-77
2021/01/06 04:38:45;;;;;;;31.70;19.23;;;4.00;90.60;;;;;;5090185;28;20308;-77
2021/01/06 04:41:38;;;;;;;32.23;19.27;;;3.90;90.80;;;;;;5090520;28;20028;-78
2021/01/06 04:44:16;;;;;;;31.83;18.90;;;3.90;90.90;;;;;;5091358;28;20020;-78
2021/01/06 04:46:48;;;;;;;33.57;19.17;;;3.90;91.00;;;;;;5091136;28;20032;-78
2021/01/06 04:49:25;;;;;;;33.20;18.77;;;3.90;90.90;;;;;;5090659;28;20032;-77
2021/01/06 04:51:59;;;;;;;36.27;19.43;;;3.90;90.90;;;;;;5090575;28;20028;-78
2021/01/06 04:54:52;;;;;;;32.07;19.23;;;3.90;90.90;;;;;;5090515;28;20846;-77
2021/01/06 04:57:25;;;;;;;34.50;20.37;;;3.90;91.00;;;;;;5092352;28;20486;-77
2021/01/06 05:00:16;;;;;;;33.60;19.63;;;4.00;91.00;;;;;;5091243;28;20048;-77
2021/01/06 05:03:19;;;;;;;31.37;18.73;;;3.90;90.80;;;;;;5092487;28;20161;-77
2021/01/06 05:06:12;;;;;;;33.70;21.00;;;3.90;90.90;;;;;;5091253;28;20038;-78
2021/01/06 05:08:49;;;;;;;44.40;20.98;;;3.90;90.90;;;;;;5090848;28;20024;-77
2021/01/06 05:11:27;;;;;;;32.43;19.70;;;4.10;90.90;;;;;;5071353;28;20074;-77
2021/01/06 05:14:01;;;;;;;29.80;18.83;;;4.10;90.90;;;;;;5072278;28;20040;-78
2021/01/06 05:16:50;;;;;;;31.03;19.53;;;4.20;90.70;;;;;;5070141;28;20016;-78
2021/01/06 05:19:28;;;;;;;31.47;19.80;;;4.10;90.70;;;;;;5073923;28;20066;-79
2021/01/06 05:21:55;;;;;;;30.70;19.33;;;4.10;90.70;;;;;;5090607;28;20043;-78
2021/01/06 05:24:23;;;;;;;33.40;21.47;;;4.10;90.50;;;;;;5073264;28;20052;-78
2021/01/06 05:27:05;;;;;;;33.03;19.77;;;4.00;90.50;;;;;;5090784;28;20471;-78
2021/01/06 05:29:30;;;;;;;31.40;19.90;;;4.00;90.60;;;;;;5090013;28;20292;-78
2021/01/06 05:31:56;;;;;;;33.63;20.17;;;4.00;90.60;;;;;;5073830;28;20032;-78
2021/01/06 05:34:24;;;;;;;34.70;21.17;;;4.00;90.60;;;;;;5091054;28;20102;-78
2021/01/06 05:36:51;;;;;;;30.03;20.37;;;4.10;90.50;;;;;;5091705;28;20024;-78
2021/01/06 05:39:25;;;;;;;28.43;18.57;;;4.00;90.40;;;;;;5090058;28;20031;-78
2021/01/06 05:42:24;;;;;;;32.97;20.80;;;4.10;90.50;;;;;;5091778;28;20081;-78
2021/01/06 05:44:51;;;;;;;31.83;19.73;;;4.10;90.30;;;;;;5090508;28;20044;-78
2021/01/06 05:47:29;;;;;;;29.47;18.70;;;4.10;90.30;;;;;;5089827;28;20488;-76
2021/01/06 05:49:54;;;;;;;30.70;19.23;;;4.00;90.20;;;;;;5092786;28;20032;-76
2021/01/06 05:52:22;;;;;;;30.60;19.00;;;4.10;90.30;;;;;;5093842;28;20482;-78
2021/01/06 05:54:55;;;;;;;29.60;19.53;;;4.10;90.30;;;;;;5077642;28;20028;-78
2021/01/06 05:57:44;;;;;;;29.75;18.92;;;4.20;90.20;;;;;;5093826;28;20043;-78
2021/01/06 06:00:31;;;;;;;30.77;19.67;;;4.20;90.00;;;;;;5093764;28;20064;-79
2021/01/06 06:03:40;;;;;;;30.70;19.00;;;4.20;90.00;;;;;;5094452;28;20031;-76
2021/01/06 06:06:43;;;;;;;31.20;18.97;;;4.10;89.90;;;;;;5095046;28;20544;-78
2021/01/06 06:09:45;;;;;;;31.73;19.67;;;4.20;90.10;;;;;;5095581;28;20020;-77
2021/01/06 06:12:48;;;;;;;28.93;18.67;;;4.20;89.70;;;;;;5095259;28;20313;-80
2021/01/06 06:15:35;;;;;;;27.97;18.87;;;4.30;89.90;;;;;;5093619;28;20135;-81
2021/01/06 06:18:24;;;;;;;27.13;16.77;;;4.40;90.00;;;;;;5095490;28;20137;-79
2021/01/06 06:21:21;;;;;;;26.80;18.83;;;4.50;90.20;;;;;;5094883;28;20392;-79
2021/01/06 06:24:22;;;;;;;26.77;18.43;;;4.70;90.10;;;;;;5094036;28;20024;-79
2021/01/06 06:27:11;;;;;;;27.20;18.07;;;4.60;88.80;;;;;;5086142;28;20044;-79
2021/01/06 06:30:11;;;;;;;26.07;18.13;;;4.40;88.90;;;;;;5093157;28;20553;-79
2021/01/06 06:32:42;;;;;;;26.93;17.80;;;4.40;89.10;;;;;;5093133;28;20109;-78
2021/01/06 06:35:19;;;;;;;27.77;17.80;;;4.50;89.50;;;;;;5093149;28;20119;-79
2021/01/06 06:37:54;;;;;;;31.27;19.70;;;4.60;89.90;;;;;;5073890;28;20476;-79
2021/01/06 06:40:20;;;;;;;28.00;20.13;;;4.80;89.00;;;;;;5072744;28;20029;-79
2021/01/06 06:43:00;;;;;;;28.03;19.70;;;4.60;88.20;;;;;;5056991;28;20541;-79
2021/01/06 06:45:52;;;;;;;27.73;19.53;;;4.60;88.10;;;;;;5074143;28;20036;-78
2021/01/06 06:48:36;;;;;;;30.30;19.40;;;4.60;88.60;;;;;;5072832;28;20033;-78
2021/01/06 06:51:17;;;;;;;30.03;20.70;;;4.70;88.90;;;;;;5090783;28;20411;-79
2021/01/06 06:53:56;;;;;;;26.30;18.43;;;4.80;88.70;;;;;;5093196;28;20031;-79
2021/01/06 06:56:52;;;;;;;27.33;18.93;;;4.80;88.40;;;;;;5092479;28;20027;-79
2021/01/06 06:59:30;;;;;;;26.37;18.70;;;4.80;88.50;;;;;;5092357;28;20035;-80
2021/01/06 07:02:02;;;;;;;26.57;18.77;;;4.80;88.60;;;;;;5092073;28;20135;-79
2021/01/06 07:04:27;;;;;;;24.23;18.03;;;4.70;88.00;;;;;;5092568;28;20016;-79
2021/01/06 07:06:58;;;;;;;28.77;18.80;;;4.70;88.00;;;;;;5093427;28;20028;-78
2021/01/06 07:09:49;;;;;;;26.30;18.00;;;4.70;88.30;;;;;;5091809;28;20031;-78
2021/01/06 07:12:15;;;;;;;50.00;19.77;;;4.70;88.20;;;;;;5092981;28;20062;-78
2021/01/06 07:14:57;;;;;;;28.90;19.00;;;4.80;88.20;;;;;;5075726;28;20052;-78
2021/01/06 07:17:39;;;;;;;30.00;19.37;;;4.70;87.90;;;;;;5093619;28;20031;-78
2021/01/06 07:20:08;;;;;;;25.17;18.27;;;4.60;87.60;;;;;;5093875;28;20054;-78
2021/01/06 07:22:39;;;;;;;26.27;17.73;;;4.50;88.10;;;;;;5093429;28;20020;-78
2021/01/06 07:25:18;;;;;;;28.43;18.47;;;4.50;88.10;;;;;;5092635;28;20027;-78
2021/01/06 07:27:57;;;;;;;28.17;18.10;;;4.60;88.50;;;;;;5092223;28;20020;-77
2021/01/06 07:30:39;;;;;;;28.23;19.30;;;4.40;88.10;;;;;;5092518;28;20112;-78
2021/01/06 07:33:24;;;;;;;28.47;19.43;;;4.50;88.80;;;;;;5092738;28;20024;-79
2021/01/06 07:35:50;;;;;;;29.03;20.13;;;4.50;88.40;;;;;;5092855;28;20094;-79
2021/01/06 07:38:19;;;;;;;26.40;17.87;;;4.60;88.30;;;;;;5092361;28;20027;-79
2021/01/06 07:40:47;;;;;;;27.90;19.73;;;4.60;88.40;;;;;;5092423;28;20036;-78
2021/01/06 07:43:28;;;;;;;27.37;18.73;;;4.70;88.60;;;;;;5093402;28;20490;-78
2021/01/06 07:45:59;;;;;;;27.30;18.67;;;4.80;88.80;;;;;;5092248;28;20069;-78
2021/01/06 07:48:43;;;;;;;30.13;19.90;;;4.80;87.90;;;;;;5091611;28;20032;-80
2021/01/06 07:51:18;;;;;;;29.50;20.47;;;4.70;87.70;;;;;;5093611;28;20028;-78
2021/01/06 07:54:02;;;;;;;28.17;19.27;;;4.70;87.70;;;;;;5091442;28;20031;-77
2021/01/06 07:56:40;;;;;;;29.50;19.90;;;4.80;88.10;;;;;;5104218;28;20035;-78
2021/01/06 07:59:20;;;;;;;27.47;19.13;;;4.90;87.70;;;;;;5091080;28;20609;-77
2021/01/06 08:01:55;;;;;;;25.53;19.30;;;4.90;87.70;;;;;;5091130;28;20495;-77
2021/01/06 08:04:32;;;;;;;27.00;19.70;;;4.90;86.90;;;;;;5092694;28;20028;-77
2021/01/06 08:07:06;;;;;;;27.30;18.43;;;5.00;87.40;;;;;;5091650;28;20153;-77
2021/01/06 08:09:42;;;;;;;25.50;17.87;;;5.10;87.50;;;;;;5092245;28;20113;-77
2021/01/06 08:12:13;;;;;;;24.07;16.97;;;5.20;87.90;;;;;;5091400;28;20031;-77
2021/01/06 08:14:39;;;;;;;24.73;17.00;;;5.30;88.00;;;;;;5091027;28;20063;-78
2021/01/06 08:17:20;;;;;;;23.13;17.20;;;5.30;87.00;;;;;;5092462;28;20027;-78
2021/01/06 08:20:07;;;;;;;26.43;18.57;;;5.30;86.70;;;;;;5091046;28;20468;-78
2021/01/06 08:22:53;;;;;;;21.93;16.37;;;5.40;86.80;;;;;;5090635;28;20032;-78
2021/01/06 08:25:25;;;;;;;21.73;16.93;;;5.40;86.70;;;;;;5091907;28;20361;-81
2021/01/06 08:27:50;;;;;;;24.13;17.20;;;5.30;86.60;;;;;;5091563;28;20028;-79
2021/01/06 08:30:23;;;;;;;22.90;16.83;;;5.40;86.10;;;;;;5090858;28;20503;-80
2021/01/06 08:33:13;;;;;;;24.98;16.73;;;5.30;86.00;;;;;;5091346;28;20028;-79
2021/01/06 08:35:44;;;;;;;26.67;17.60;;;5.40;85.50;;;;;;5090381;28;20781;-79
2021/01/06 08:38:28;;;;;;;23.00;16.83;;;5.10;84.50;;;;;;5091215;28;20028;-79
2021/01/06 08:40:54;;;;;;;24.60;15.23;;;4.90;84.30;;;;;;5090721;28;20028;-78
2021/01/06 08:43:20;;;;;;;21.37;15.50;;;4.70;83.70;;;;;;5092056;28;20475;-79
2021/01/06 08:45:56;;;;;;;21.53;15.43;;;4.80;84.00;;;;;;5073786;28;20028;-79
2021/01/06 08:48:27;;;;;;;20.50;14.60;;;4.70;84.30;;;;;;5090665;28;20391;-80
2021/01/06 08:51:15;;;;;;;17.53;13.27;;;4.70;84.10;;;;;;5090996;28;20097;-78
2021/01/06 08:53:43;;;;;;;19.00;14.03;;;4.80;83.60;;;;;;5091700;28;20199;-80
2021/01/06 08:56:23;;;;;;;26.70;18.10;;;4.60;83.40;;;;;;5092295;28;20161;-80
2021/01/06 08:58:57;;;;;;;23.63;16.67;;;4.70;85.00;;;;;;5090284;28;20075;-79
2021/01/06 09:01:49;;;;;;;25.30;18.37;;;4.80;84.90;;;;;;5091099;28;20487;-80
2021/01/06 09:04:17;;;;;;;29.20;20.33;;;5.00;85.30;;;;;;5091663;28;20360;-80
2021/01/06 09:07:04;;;;;;;23.47;16.97;;;5.20;85.40;;;;;;5091124;28;20116;-79
2021/01/06 09:09:53;;;;;;;25.77;17.13;;;5.10;83.30;;;;;;5089748;28;20016;-80
2021/01/06 09:13:00;;;;;;;21.07;14.97;;;5.00;82.40;;;;;;5104286;28;20020;-78
2021/01/06 09:15:44;;;;;;;26.47;17.17;;;5.10;82.60;;;;;;5076352;28;20028;-78
2021/01/06 09:18:25;;;;;;;26.57;17.90;;;5.00;82.60;;;;;;5091649;28;20032;-80
2021/01/06 09:21:12;;;;;;;30.50;18.90;;;5.20;82.90;;;;;;5090095;28;20097;-79
2021/01/06 09:23:39;;;;;;;23.20;17.10;;;5.20;81.50;;;;;;5090388;28;20024;-80
2021/01/06 09:26:06;;;;;;;29.83;19.90;;;5.40;82.30;;;;;;5090765;28;20020;-80
2021/01/06 09:28:35;;;;;;;33.00;22.10;;;5.50;81.70;;;;;;5090993;28;20032;-80
2021/01/06 09:31:01;;;;;;;29.93;21.53;;;5.50;81.20;;;;;;5090157;28;20036;-79
2021/01/06 09:33:34;;;;;;;30.33;19.20;;;5.70;82.00;;;;;;5072884;28;20028;-79
2021/01/06 09:36:01;;;;;;;33.22;20.92;;;5.80;80.70;;;;;;5091210;28;20032;-80
2021/01/06 09:38:46;;;;;;;29.90;20.37;;;5.90;81.00;;;;;;5090828;28;20043;-79
2021/01/06 09:41:33;;;;;;;25.17;17.23;;;6.10;81.20;;;;;;5089681;28;20558;-80
2021/01/06 09:44:06;;;;;;;33.37;21.53;;;6.20;80.70;;;;;;5088295;28;20031;-79
2021/01/06 09:47:06;;;;;;;30.37;19.60;;;6.20;81.00;;;;;;5087576;28;20055;-79
2021/01/06 09:49:37;;;;;;;31.93;21.37;;;6.20;80.20;;;;;;5082799;28;20424;-79
2021/01/06 09:52:15;;;;;;;33.57;22.13;;;6.30;80.30;;;;;;5091179;28;20036;-79
2021/01/06 09:54:42;;;;;;;21.37;15.23;;;6.50;80.50;;;;;;5088453;28;20051;-80
2021/01/06 09:57:16;;;;;;;28.53;20.17;;;6.40;77.30;;;;;;5073341;28;20024;-81
2021/01/06 09:59:43;;;;;;;40.47;24.03;;;6.00;77.80;;;;;;5088804;28;20036;-80
2021/01/06 10:02:21;;;;;;;41.60;23.63;;;6.10;80.20;;;;;;5089657;28;20503;-80
2021/01/06 10:04:49;;;;;;;23.47;16.63;;;6.10;80.80;;;;;;5088765;28;20039;-80
2021/01/06 10:07:24;;;;;;;35.33;22.07;;;6.20;79.80;;;;;;5089406;28;20016;-80
2021/01/06 10:10:04;;;;;;;27.47;17.93;;;6.20;80.30;;;;;;5086846;28;20088;-80
2021/01/06 10:12:45;;;;;;;24.37;17.43;;;6.10;78.60;;;;;;5089005;28;20495;-80
2021/01/06 10:15:16;;;;;;;27.97;17.97;;;6.00;79.20;;;;;;5087319;28;20114;-80
2021/01/06 10:17:51;;;;;;;19.47;14.20;;;5.90;79.90;;;;;;5076630;28;20032;-82
2021/01/06 10:20:30;;;;;;;33.20;21.50;;;5.70;78.30;;;;;;5089112;28;20048;-80
2021/01/06 10:23:02;;;;;;;41.13;24.40;;;5.50;79.10;;;;;;5074052;28;20043;-80
2021/01/06 10:25:39;;;;;;;27.60;18.33;;;5.60;80.30;;;;;;5089506;28;20024;-80
2021/01/06 10:28:32;;;;;;;32.10;21.67;;;5.80;79.30;;;;;;5088474;28;20290;-81
2021/01/06 10:31:12;;;;;;;27.50;19.10;;;5.80;79.50;;;;;;5088261;28;20032;-80
2021/01/06 10:34:08;;;;;;;36.43;21.60;;;5.60;78.80;;;;;;5089211;28;20118;-78
2021/01/06 10:37:01;;;;;;;35.10;22.93;;;5.40;79.40;;;;;;5092127;28;20095;-81
2021/01/06 10:39:32;;;;;;;35.65;23.20;;;5.50;80.20;;;;;;5108332;28;20038;-81
2021/01/06 10:42:04;;;;;;;35.23;22.90;;;5.70;80.40;;;;;;5092961;28;20036;-81
2021/01/06 10:44:36;;;;;;;34.70;22.60;;;5.80;79.70;;;;;;5094148;28;20118;-79
2021/01/06 10:47:29;;;;;;;27.58;18.75;;;5.90;79.60;;;;;;5072694;28;20060;-78
2021/01/06 10:49:55;;;;;;;;;;;5.90;78.60;;;;;;5073030;28;20040;-78
2021/01/06 10:52:24;;;;;;;33.83;20.47;;;5.80;77.50;;;;;;5077835;28;19908;-79
2021/01/06 10:54:49;;;;;;;41.43;26.30;;;5.70;78.80;;;;;;5091943;28;20071;-79
2021/01/06 10:57:15;;;;;;;36.47;24.43;;;6.00;80.00;;;;;;5092958;28;20471;-79
2021/01/06 11:00:03;;;;;;;39.93;25.80;;;6.30;80.40;;;;;;5093223;28;20043;-79
2021/01/06 11:03:20;;;;;;;35.90;22.83;;;6.40;79.40;;;;;;5092880;28;20047;-79
2021/01/06 11:05:51;;;;;;;38.43;25.00;;;6.50;78.60;;;;;;5080376;28;20039;-79
2021/01/06 11:08:36;;;;;;;43.80;27.67;;;6.50;78.60;;;;;;5093959;28;20085;-80
2021/01/06 11:11:46;;;;;;;34.00;23.57;;;6.40;78.30;;;;;;5092556;28;20035;-79
2021/01/06 11:14:42;;;;;;;21.00;14.97;;;6.40;78.10;;;;;;5083321;28;20391;-79
2021/01/06 11:17:16;;;;;;;26.03;17.37;;;6.40;76.20;;;;;;5093768;28;20085;-79
2021/01/06 11:19:55;;;;;;;38.30;24.47;;;6.20;76.90;;;;;;5091889;28;20032;-80
2021/01/06 11:22:38;;;;;;;34.83;23.33;;;6.20;78.10;;;;;;5092517;28;20475;-80
2021/01/06 11:25:32;;;;;;;32.20;22.75;;;6.40;78.70;;;;;;5092571;28;20027;-79
2021/01/06 11:28:03;;;;;;;;;;;6.40;77.50;;;;;;5092570;28;20040;-79
2021/01/06 11:30:35;;;;;;;31.67;21.37;;;6.40;77.80;;;;;;5093695;28;19912;-79
2021/01/06 11:33:18;;;;;;;27.90;19.07;;;6.60;78.10;;;;;;5093589;28;20031;-79
2021/01/06 11:35:57;;;;;;;24.70;18.60;;;6.60;77.60;;;;;;5093281;28;20035;-78
2021/01/06 11:38:38;;;;;;;27.77;19.00;;;6.60;77.40;;;;;;5092957;28;20429;-80
2021/01/06 11:41:06;;;;;;;21.07;15.10;;;6.60;77.30;;;;;;5094022;28;20024;-79
2021/01/06 11:43:47;;;;;;;33.77;22.27;;;6.60;76.60;;;;;;5076079;28;20085;-79
2021/01/06 11:46:41;;;;;;;26.87;18.67;;;6.50;77.20;;;;;;5074079;28;20021;-80
2021/01/06 11:49:28;;;;;;;33.67;23.35;;;6.50;76.90;;;;;;5079044;28;20020;-80
2021/01/06 11:52:19;;;;;;;28.70;19.63;;;6.50;77.80;;;;;;5085629;28;20457;-79
2021/01/06 11:54:59;;;;;;;29.27;20.43;;;6.50;77.70;;;;;;5097935;28;20060;-80
2021/01/06 11:57:55;;;;;;;24.90;17.97;;;6.50;77.90;;;;;;5101261;28;20028;-79
2021/01/06 12:00:42;;;;;;;24.13;17.73;;;6.40;77.50;;;;;;5102124;28;20046;-80
2021/01/06 12:03:08;;;;;;;25.57;16.90;;;6.30;78.10;;;;;;5100916;28;20020;-80
2021/01/06 12:05:40;;;;;;;25.83;18.87;;;6.10;77.90;;;;;;5093414;28;20444;-80
2021/01/06 12:08:57;;;;;;;26.10;18.30;;;6.20;78.10;;;;;;5092944;28;20026;-80
2021/01/06 12:11:41;;;;;;;21.27;16.00;;;6.20;78.40;;;;;;5074810;28;20430;-79
2021/01/06 12:14:41;;;;;;;26.30;18.20;;;6.20;77.70;;;;;;5093318;28;20111;-81
2021/01/06 12:17:19;;;;;;;33.47;21.43;;;6.10;77.60;;;;;;5093695;28;20028;-80
2021/01/06 12:19:58;;;;;;;27.20;19.23;;;6.10;78.60;;;;;;5091104;28;20031;-79
2021/01/06 12:22:25;;;;;;;22.57;16.20;;;6.20;78.50;;;;;;5092605;28;20039;-80
2021/01/06 12:24:58;;;;;;;28.97;19.03;;;6.20;77.60;;;;;;5090622;28;20027;-82
2021/01/06 12:27:30;;;;;;;29.00;19.77;;;6.20;78.30;;;;;;5092919;28;20035;-79
2021/01/06 12:30:01;;;;;;;24.30;17.77;;;6.20;78.80;;;;;;5091157;28;20038;-80
2021/01/06 12:32:55;;;;;;;28.40;19.77;;;6.20;77.90;;;;;;5092446;28;20055;-80
2021/01/06 12:35:30;;;;;;;29.37;19.63;;;6.20;78.90;;;;;;5092832;28;20024;-80
2021/01/06 12:38:06;;;;;;;24.37;17.60;;;6.20;78.80;;;;;;5092319;28;20013;-80
2021/01/06 12:40:48;;;;;;;26.70;18.83;;;6.30;79.00;;;;;;5092415;28;20032;-80
2021/01/06 12:43:22;;;;;;;26.03;17.93;;;6.40;78.70;;;;;;5092885;28;20070;-79
2021/01/06 12:45:56;;;;;;;;;;;6.40;78.90;;;;;;5090720;28;20381;-80
2021/01/06 12:48:28;;;;;;;21.37;15.57;;;6.50;78.70;;;;;;5093289;28;19914;-80
2021/01/06 12:50:53;;;;;;;19.73;14.47;;;6.50;78.00;;;;;;5089798;28;20392;-80
2021/01/06 12:53:29;;;;;;;23.13;17.10;;;6.30;76.70;;;;;;5091680;28;20030;-80
2021/01/06 12:56:42;;;;;;;24.93;17.20;;;6.40;77.70;;;;;;5090842;28;20654;-80
2021/01/06 12:59:21;;;;;;;20.67;15.53;;;6.40;78.50;;;;;;5091335;28;20083;-80
2021/01/06 13:01:59;;;;;;;23.90;15.80;;;6.50;78.00;;;;;;5089971;28;20086;-79
2021/01/06 13:04:48;;;;;;;25.47;15.13;;;6.60;78.30;;;;;;5092639;28;20028;-81
2021/01/06 13:07:31;;;;;;;21.97;15.10;;;6.70;78.30;;;;;;5092541;28;20020;-80
2021/01/06 13:10:39;;;;;;;19.13;15.02;;;6.60;77.70;;;;;;5090856;28;20020;-80
2021/01/06 13:13:33;;;;;;;20.87;14.23;;;6.50;77.40;;;;;;5087662;28;20551;-79
2021/01/06 13:16:31;;;;;;;17.43;13.63;;;6.60;77.80;;;;;;5090276;28;20484;-80
2021/01/06 13:18:56;;;;;;;18.77;13.80;;;6.60;77.90;;;;;;5089821;28;20096;-80
2021/01/06 13:21:22;;;;;;;16.40;12.53;;;6.60;77.60;;;;;;5091125;28;20119;-80
2021/01/06 13:24:05;;;;;;;20.30;12.70;;;6.60;76.80;;;;;;5090810;28;20035;-79